createdAt,value
2018-05-11T00:00:54.773Z,33.80
2018-05-11T00:01:54.760Z,33.20
2018-05-11T00:03:47.302Z,32.60
2018-05-11T00:04:47.090Z,32.70
2018-05-11T00:06:39.430Z,32.70
2018-05-11T00:07:39.420Z,32.50
2018-05-11T00:09:32.864Z,32.30
2018-05-11T00:10:32.759Z,32.60
2018-05-11T00:12:25.102Z,32.10
2018-05-11T00:13:25.089Z,31.20
2018-05-11T00:15:17.541Z,31.70
2018-05-11T00:16:17.420Z,32.10
2018-05-11T00:18:09.767Z,32.90
2018-05-11T00:19:09.762Z,32.10
2018-05-11T00:21:02.300Z,31.70
2018-05-11T00:22:02.099Z,30.40
2018-05-11T00:23:54.449Z,31.40
2018-05-11T00:24:54.440Z,31.50
2018-05-11T00:26:47.597Z,30.60
2018-05-11T00:27:46.803Z,30.40
2018-05-11T00:29:39.176Z,30.30
2018-05-11T00:30:39.193Z,29.80
2018-05-11T00:32:31.642Z,29.60
2018-05-11T00:33:31.504Z,29.80
2018-05-11T00:35:23.838Z,29.70
2018-05-11T00:36:23.828Z,30.10
2018-05-11T00:38:16.389Z,29.10
2018-05-11T00:39:16.187Z,28.90
2018-05-11T00:41:08.536Z,29.40
2018-05-11T00:42:08.517Z,28.80
2018-05-11T00:44:00.977Z,28.20
2018-05-11T00:45:00.847Z,26.80
2018-05-11T00:46:53.196Z,27.20
2018-05-11T00:47:53.187Z,26.80
2018-05-11T00:49:45.736Z,26.90
2018-05-11T00:50:45.528Z,26.80
2018-05-11T00:52:37.960Z,26.80
2018-05-11T00:53:37.376Z,26.20
2018-05-11T00:55:29.833Z,25.80
2018-05-11T00:56:29.713Z,25.70
2018-05-11T00:58:22.149Z,25.40
2018-05-11T00:59:22.051Z,26.30
2018-05-11T01:01:14.606Z,25.50
2018-05-11T01:02:14.404Z,25.80
2018-05-11T01:04:06.747Z,26.60
2018-05-11T01:05:06.762Z,26.80
2018-05-11T01:06:59.197Z,26.90
2018-05-11T01:08:02.047Z,25.90
2018-05-11T01:09:50.955Z,26.80
2018-05-11T01:10:50.914Z,25.40
2018-05-11T01:12:43.412Z,24.80
2018-05-11T01:13:43.310Z,25.10
2018-05-11T01:15:35.683Z,25.20
2018-05-11T01:16:35.649Z,25.30
2018-05-11T01:18:28.086Z,25.10
2018-05-11T01:19:27.999Z,26.40
2018-05-11T01:21:20.347Z,25.20
2018-05-11T01:22:20.338Z,25.10
2018-05-11T01:24:12.815Z,24.90
2018-05-11T01:25:12.698Z,25.40
2018-05-11T01:27:05.022Z,26.10
2018-05-11T01:28:05.022Z,26.50
2018-05-11T01:31:28.881Z,25.40
2018-05-11T01:32:28.668Z,26.20
2018-05-11T01:34:21.606Z,26.00
2018-05-11T01:35:21.064Z,26.60
2018-05-11T01:37:13.588Z,26.00
2018-05-11T01:38:13.373Z,25.00
2018-05-11T01:40:05.731Z,24.60
2018-05-11T01:41:05.698Z,24.80
2018-05-11T01:43:01.140Z,24.90
2018-05-11T01:43:58.063Z,24.90
2018-05-11T01:45:50.426Z,23.80
2018-05-11T01:46:50.394Z,24.30
2018-05-11T01:48:42.908Z,24.50
2018-05-11T01:49:42.735Z,23.80
2018-05-11T01:51:35.099Z,23.80
2018-05-11T01:52:35.075Z,23.50
2018-05-11T01:54:27.524Z,24.50
2018-05-11T01:55:27.404Z,24.40
2018-05-11T01:57:19.780Z,24.50
2018-05-11T01:58:19.752Z,24.40
2018-05-11T02:00:12.174Z,24.80
2018-05-11T02:01:12.102Z,24.30
2018-05-11T02:03:04.467Z,24.00
2018-05-11T02:04:04.451Z,23.30
2018-05-11T02:05:56.522Z,22.60
2018-05-11T02:06:56.298Z,23.80
2018-05-11T02:08:48.639Z,22.90
2018-05-11T02:09:48.627Z,22.40
2018-05-11T02:11:41.208Z,22.90
2018-05-11T02:12:40.956Z,22.90
2018-05-11T02:14:33.298Z,22.80
2018-05-11T02:15:33.290Z,22.40
2018-05-11T02:17:25.746Z,22.90
2018-05-11T02:18:25.617Z,21.20
2018-05-11T02:20:18.992Z,18.30
2018-05-11T02:21:18.983Z,17.10
2018-05-11T02:23:12.467Z,13.60
2018-05-11T02:24:12.339Z,13.40
2018-05-11T02:26:05.703Z,11.70
2018-05-11T02:27:05.694Z,12.60
2018-05-11T02:28:59.247Z,13.10
2018-05-11T02:29:59.038Z,15.10
2018-05-11T02:31:52.402Z,16.00
2018-05-11T02:32:52.388Z,15.70
2018-05-11T02:34:45.853Z,14.70
2018-05-11T02:35:45.728Z,13.90
2018-05-11T02:37:39.079Z,14.50
2018-05-11T02:38:39.070Z,13.70
2018-05-11T02:40:32.621Z,12.10
2018-05-11T02:41:32.427Z,12.20
2018-05-11T02:43:25.870Z,9.30
2018-05-11T02:44:25.763Z,8.10
2018-05-11T02:46:19.427Z,8.20
2018-05-11T02:47:19.108Z,8.60
2018-05-11T02:49:12.473Z,9.90
2018-05-11T02:50:12.474Z,10.30
2018-05-11T02:52:05.950Z,10.50
2018-05-11T02:53:05.819Z,9.90
2018-05-11T02:54:59.181Z,10.30
2018-05-11T02:55:59.171Z,9.60
2018-05-11T02:57:52.689Z,10.50
2018-05-11T02:58:52.562Z,9.80
2018-05-11T03:00:45.925Z,6.60
2018-05-11T03:01:45.911Z,6.50
2018-05-11T03:03:38.466Z,7.40
2018-05-11T03:04:38.254Z,9.90
2018-05-11T03:06:31.186Z,5.60
2018-05-11T03:07:30.942Z,6.40
2018-05-11T03:09:23.900Z,38.60
2018-05-11T03:10:23.065Z,530.70
2018-05-11T03:12:15.412Z,606.40
2018-05-11T03:15:07.845Z,331.90
2018-05-11T03:16:07.729Z,294.80
2018-05-11T03:18:03.160Z,142.80
2018-05-11T03:19:00.409Z,162.70
2018-05-11T03:20:52.771Z,27.30
2018-05-11T03:21:52.653Z,13.20
2018-05-11T03:23:45.010Z,15.60
2018-05-11T03:24:45.014Z,22.10
2018-05-11T03:26:36.994Z,18.40
2018-05-11T03:27:36.845Z,17.60
2018-05-11T03:29:29.198Z,15.80
2018-05-11T03:30:29.179Z,16.30
2018-05-11T03:32:21.646Z,16.80
2018-05-11T03:33:21.503Z,16.50
2018-05-11T03:35:14.037Z,16.20
2018-05-11T03:36:14.024Z,16.30
2018-05-11T03:38:06.569Z,17.20
2018-05-11T03:39:06.813Z,17.30
2018-05-11T03:40:58.702Z,16.60
2018-05-11T03:41:58.695Z,16.90
2018-05-11T03:43:51.177Z,15.70
2018-05-11T03:44:51.507Z,15.10
2018-05-11T03:46:43.420Z,14.10
2018-05-11T03:47:43.427Z,14.80
2018-05-11T03:49:35.871Z,13.90
2018-05-11T03:50:35.766Z,13.40
2018-05-11T03:52:28.124Z,12.90
2018-05-11T03:53:28.085Z,13.60
2018-05-11T03:55:21.991Z,13.10
2018-05-11T03:56:20.450Z,13.80
2018-05-11T03:58:12.790Z,12.80
2018-05-11T03:59:12.801Z,12.20
2018-05-11T04:01:05.959Z,469.00
2018-05-11T04:02:05.135Z,502.20
2018-05-11T04:03:57.492Z,308.40
2018-05-11T04:04:57.480Z,270.40
2018-05-11T04:06:50.068Z,135.50
2018-05-11T04:07:49.851Z,173.00
2018-05-11T04:09:41.819Z,275.20
2018-05-11T04:10:41.711Z,267.50
2018-05-11T04:12:33.696Z,283.20
2018-05-11T04:13:34.894Z,266.30
2018-05-11T04:15:25.360Z,296.00
2018-05-11T04:16:25.339Z,286.20
2018-05-11T04:18:17.887Z,240.40
2018-05-11T04:19:17.683Z,244.80
2018-05-11T04:21:10.031Z,249.90
2018-05-11T04:22:10.027Z,244.00
2018-05-11T04:24:02.571Z,256.50
2018-05-11T04:25:02.355Z,255.70
2018-05-11T04:26:54.732Z,230.70
2018-05-11T04:27:54.701Z,200.50
2018-05-11T04:29:47.189Z,238.10
2018-05-11T04:30:47.036Z,209.90
2018-05-11T04:32:39.394Z,197.70
2018-05-11T04:33:39.370Z,200.70
2018-05-11T04:35:32.379Z,190.80
2018-05-11T04:36:32.167Z,195.70
2018-05-11T04:38:25.443Z,209.30
2018-05-11T04:39:25.434Z,196.70
2018-05-11T04:41:16.563Z,164.10
2018-05-11T04:42:16.400Z,147.00
2018-05-11T04:44:08.743Z,124.40
2018-05-11T04:45:08.806Z,126.20
2018-05-11T04:47:01.196Z,119.50
2018-05-11T04:48:01.057Z,120.00
2018-05-11T04:49:53.401Z,120.20
2018-05-11T04:50:53.391Z,125.80
2018-05-11T04:51:53.392Z,134.50
2018-05-11T04:52:53.375Z,131.60
2018-05-11T04:53:53.375Z,139.50
2018-05-11T04:54:53.360Z,136.00
2018-05-11T04:55:53.355Z,149.20
2018-05-11T04:56:53.351Z,148.90
2018-05-11T04:57:53.343Z,142.10
2018-05-11T04:58:53.357Z,134.30
2018-05-11T04:59:53.330Z,137.70
2018-05-11T05:00:53.334Z,136.90
2018-05-11T05:01:53.323Z,125.10
2018-05-11T05:02:53.355Z,112.50
2018-05-11T05:03:53.298Z,116.80
2018-05-11T05:04:53.294Z,110.80
2018-05-11T05:05:53.294Z,106.30
2018-05-11T05:06:53.279Z,106.60
2018-05-11T05:07:53.273Z,112.60
2018-05-11T05:08:53.264Z,117.40
2018-05-11T05:09:53.257Z,113.90
2018-05-11T05:10:53.277Z,113.40
2018-05-11T05:11:53.248Z,112.80
2018-05-11T05:12:53.262Z,112.80
2018-05-11T05:13:53.231Z,113.40
2018-05-11T05:14:53.224Z,109.10
2018-05-11T05:15:53.222Z,111.70
2018-05-11T05:16:53.236Z,103.70
2018-05-11T05:17:53.224Z,104.20
2018-05-11T05:18:53.208Z,104.70
2018-05-11T05:19:53.191Z,102.10
2018-05-11T05:20:53.183Z,96.80
2018-05-11T05:21:53.181Z,98.40
2018-05-11T05:22:53.181Z,96.40
2018-05-11T05:23:53.178Z,91.80
2018-05-11T05:24:53.195Z,90.80
2018-05-11T05:25:53.171Z,87.40
2018-05-11T05:26:53.194Z,77.30
2018-05-11T05:27:53.137Z,75.90
2018-05-11T05:28:53.133Z,74.90
2018-05-11T05:29:53.124Z,77.50
2018-05-11T05:30:53.120Z,79.50
2018-05-11T05:31:53.132Z,74.20
2018-05-11T05:32:53.109Z,71.70
2018-05-11T05:34:53.199Z,70.70
2018-05-11T05:35:53.214Z,71.80
2018-05-11T05:36:53.912Z,74.00
2018-05-11T05:37:53.175Z,73.30
2018-05-11T05:38:53.190Z,72.30
2018-05-11T05:39:53.167Z,70.60
2018-05-11T05:41:14.200Z,71.60
2018-05-11T05:41:54.953Z,70.50
2018-05-11T05:42:53.170Z,68.70
2018-05-11T05:43:53.137Z,73.30
2018-05-11T05:44:53.135Z,68.90
2018-05-11T05:45:54.972Z,69.30
2018-05-11T05:47:14.126Z,66.70
2018-05-11T05:47:53.127Z,65.80
2018-05-11T05:48:53.106Z,66.40
2018-05-11T05:49:53.121Z,65.70
2018-05-11T05:50:53.086Z,64.90
2018-05-11T05:51:53.085Z,60.30
2018-05-11T05:53:14.082Z,62.60
2018-05-11T05:53:53.111Z,67.40
2018-05-11T05:54:53.101Z,65.60
2018-05-11T05:55:53.066Z,63.30
2018-05-11T05:56:53.052Z,62.40
2018-05-11T05:57:54.502Z,65.60
2018-05-11T05:59:14.042Z,64.00
2018-05-11T05:59:53.043Z,64.20
2018-05-11T06:00:53.042Z,61.10
2018-05-11T06:01:53.017Z,59.10
2018-05-11T06:02:53.007Z,62.80
2018-05-11T06:03:53.026Z,62.20
2018-05-11T06:05:14.010Z,62.70
2018-05-11T06:05:52.992Z,59.70
2018-05-11T06:06:52.994Z,59.30
2018-05-11T06:07:53.518Z,60.30
2018-05-11T06:08:52.973Z,60.00
2018-05-11T06:09:52.974Z,56.60
2018-05-11T06:11:14.653Z,55.30
2018-05-11T06:11:52.948Z,54.20
2018-05-11T06:12:52.946Z,56.20
2018-05-11T06:13:52.942Z,48.60
2018-05-11T06:14:52.931Z,44.00
2018-05-11T06:15:52.936Z,41.40
2018-05-11T06:17:14.519Z,35.90
2018-05-11T06:17:52.919Z,29.50
2018-05-11T06:18:52.944Z,25.50
2018-05-11T06:19:52.910Z,22.60
2018-05-11T06:20:52.920Z,20.50
2018-05-11T06:21:53.532Z,19.50
2018-05-11T06:23:13.904Z,18.10
2018-05-11T06:23:53.807Z,19.30
2018-05-11T06:24:52.950Z,18.80
2018-05-11T06:25:52.857Z,21.90
2018-05-11T06:26:52.906Z,23.00
2018-05-11T06:27:52.865Z,21.60
2018-05-11T06:29:13.870Z,24.40
2018-05-11T06:29:52.826Z,29.20
2018-05-11T06:30:52.823Z,27.90
2018-05-11T06:31:53.526Z,25.20
2018-05-11T06:32:52.838Z,25.90
2018-05-11T06:33:52.847Z,27.30
2018-05-11T06:35:13.805Z,27.00
2018-05-11T06:35:52.792Z,26.70
2018-05-11T06:36:52.783Z,25.90
2018-05-11T06:37:52.803Z,23.50
2018-05-11T06:38:52.772Z,23.20
2018-05-11T06:39:52.775Z,22.80
2018-05-11T06:41:13.764Z,21.60
2018-05-11T06:41:52.750Z,20.80
2018-05-11T06:42:52.743Z,20.40
2018-05-11T06:43:52.791Z,19.20
2018-05-11T06:44:52.734Z,19.10
2018-05-11T06:45:52.724Z,20.20
2018-05-11T06:47:13.726Z,21.40
2018-05-11T06:47:52.715Z,19.40
2018-05-11T06:48:53.536Z,19.80
2018-05-11T06:49:52.697Z,19.30
2018-05-11T06:50:52.692Z,18.00
2018-05-11T06:51:52.689Z,18.30
2018-05-11T06:53:13.724Z,17.00
2018-05-11T06:53:52.680Z,16.70
2018-05-11T06:54:52.667Z,14.10
2018-05-11T06:55:52.706Z,11.90
2018-05-11T06:56:52.652Z,13.50
2018-05-11T06:57:53.176Z,12.70
2018-05-11T06:59:13.646Z,13.40
2018-05-11T06:59:52.648Z,12.20
2018-05-11T07:00:52.632Z,12.90
2018-05-11T07:01:52.663Z,13.90
2018-05-11T07:02:52.726Z,16.50
2018-05-11T07:03:52.635Z,14.60
2018-05-11T07:05:13.609Z,14.70
2018-05-11T07:05:52.596Z,14.20
2018-05-11T07:06:52.580Z,15.20
2018-05-11T07:07:52.634Z,15.20
2018-05-11T07:08:52.568Z,15.60
2018-05-11T07:09:52.567Z,14.40
2018-05-11T07:11:13.571Z,13.90
2018-05-11T07:11:52.550Z,14.00
2018-05-11T07:12:52.542Z,14.80
2018-05-11T07:13:52.541Z,15.20
2018-05-11T07:14:52.576Z,13.60
2018-05-11T07:15:52.545Z,14.50
2018-05-11T07:17:13.565Z,14.10
2018-05-11T07:17:52.511Z,15.00
2018-05-11T07:18:52.509Z,13.50
2018-05-11T07:19:52.503Z,13.60
2018-05-11T07:20:52.508Z,14.00
2018-05-11T07:21:52.486Z,13.40
2018-05-11T07:23:13.481Z,14.60
2018-05-11T07:23:52.475Z,14.00
2018-05-11T07:24:52.463Z,14.80
2018-05-11T07:25:52.459Z,13.90
2018-05-11T07:26:52.448Z,13.90
2018-05-11T07:27:52.443Z,13.60
2018-05-11T07:29:13.451Z,12.80
2018-05-11T07:29:52.442Z,12.20
2018-05-11T07:30:52.422Z,12.20
2018-05-11T07:31:52.410Z,11.70
2018-05-11T07:32:52.449Z,11.50
2018-05-11T07:33:52.405Z,11.70
2018-05-11T07:35:13.419Z,12.10
2018-05-11T07:35:52.396Z,11.60
2018-05-11T07:36:52.382Z,12.40
2018-05-11T07:37:52.397Z,11.60
2018-05-11T07:38:52.365Z,11.20
2018-05-11T07:39:52.375Z,9.20
2018-05-11T07:41:13.366Z,8.80
2018-05-11T07:41:52.382Z,7.70
2018-05-11T07:42:52.342Z,7.60
2018-05-11T07:43:52.354Z,7.50
2018-05-11T07:44:53.056Z,7.00
2018-05-11T07:45:52.324Z,7.80
2018-05-11T07:47:13.332Z,7.40
2018-05-11T07:47:52.321Z,8.30
2018-05-11T07:48:52.304Z,7.90
2018-05-11T07:49:52.313Z,8.20
2018-05-11T07:50:52.296Z,8.00
2018-05-11T07:51:52.288Z,7.80
2018-05-11T07:53:13.293Z,8.80
2018-05-11T07:53:52.305Z,7.70
2018-05-11T07:54:52.272Z,7.70
2018-05-11T07:55:52.278Z,7.70
2018-05-11T07:56:52.251Z,8.00
2018-05-11T07:57:52.267Z,6.80
2018-05-11T07:59:13.237Z,6.90
2018-05-11T07:59:52.273Z,6.90
2018-05-11T08:00:52.229Z,7.00
2018-05-11T08:01:52.225Z,6.60
2018-05-11T08:02:52.207Z,6.90
2018-05-11T08:03:52.229Z,6.90
2018-05-11T08:05:13.204Z,7.40
2018-05-11T08:05:52.190Z,7.50
2018-05-11T08:06:52.184Z,7.10
2018-05-11T08:07:52.177Z,6.80
2018-05-11T08:08:52.167Z,7.10
2018-05-11T08:09:52.164Z,6.80
2018-05-11T08:11:13.212Z,7.30
2018-05-11T08:11:52.153Z,7.20
2018-05-11T08:12:52.149Z,7.00
2018-05-11T08:13:52.144Z,6.90
2018-05-11T08:14:52.843Z,6.70
2018-05-11T08:17:13.571Z,7.10
2018-05-11T08:17:52.464Z,7.00
2018-05-11T08:18:53.101Z,6.70
2018-05-11T08:19:52.540Z,7.60
2018-05-11T08:20:54.234Z,6.50
2018-05-11T08:23:23.141Z,7.30
2018-05-11T08:25:23.133Z,7.00
2018-05-11T08:26:23.125Z,7.00
2018-05-11T08:27:23.024Z,7.30
2018-05-11T08:28:23.003Z,6.70
2018-05-11T08:29:23.522Z,7.00
2018-05-11T08:30:23.004Z,7.00
2018-05-11T08:31:22.994Z,229.00
2018-05-11T08:32:22.984Z,176.70
2018-05-11T08:33:22.969Z,165.50
2018-05-11T08:34:23.029Z,258.00
2018-05-11T08:35:22.951Z,284.60
2018-05-11T08:36:22.973Z,353.40
2018-05-11T08:37:22.940Z,91.20
2018-05-11T08:38:23.539Z,58.10
2018-05-11T08:39:22.927Z,72.30
2018-05-11T08:40:22.934Z,77.50
2018-05-11T08:41:22.955Z,43.40
2018-05-11T08:42:22.913Z,51.50
2018-05-11T08:43:22.937Z,47.90
2018-05-11T08:44:22.895Z,28.50
2018-05-11T08:45:22.898Z,34.70
2018-05-11T08:46:22.886Z,21.30
2018-05-11T08:47:22.876Z,36.90
2018-05-11T08:48:22.908Z,43.00
2018-05-11T08:49:22.862Z,48.00
2018-05-11T08:50:22.870Z,47.50
2018-05-11T08:51:22.849Z,47.30
2018-05-11T08:52:22.843Z,45.30
2018-05-11T08:53:22.834Z,46.50
2018-05-11T08:54:22.850Z,43.80
2018-05-11T08:55:22.839Z,44.40
2018-05-11T08:56:22.815Z,43.80
2018-05-11T08:57:22.819Z,44.10
2018-05-11T08:58:22.802Z,40.90
2018-05-11T08:59:22.798Z,43.20
2018-05-11T09:00:22.793Z,38.00
2018-05-11T09:01:22.777Z,38.50
2018-05-11T09:02:22.809Z,38.90
2018-05-11T09:03:22.771Z,38.10
2018-05-11T09:04:22.763Z,38.20
2018-05-11T09:05:22.750Z,37.60
